createdAt,value
2019-02-03T00:05:34.503Z,4.60
2019-02-03T00:15:39.621Z,7.17
2019-02-03T00:25:44.860Z,4.70
2019-02-03T00:35:49.966Z,4.40
2019-02-03T00:45:55.096Z,5.30
2019-02-03T00:56:00.215Z,4.43
2019-02-03T01:06:06.494Z,4.13
2019-02-03T01:16:12.787Z,4.30
2019-02-03T01:26:17.913Z,4.13
2019-02-03T01:36:23.301Z,4.37
2019-02-03T01:46:28.428Z,4.57
2019-02-03T01:56:33.590Z,4.50
2019-02-03T04:03:52.313Z,4.80
2019-02-03T04:13:57.459Z,3.77
2019-02-03T04:24:02.540Z,4.13
2019-02-03T04:34:07.647Z,4.20
2019-02-03T04:44:12.784Z,3.93
2019-02-03T04:54:17.915Z,3.70
2019-02-03T05:04:23.023Z,3.60
2019-02-03T05:14:28.141Z,3.90
2019-02-03T05:24:33.264Z,3.77
2019-02-03T05:34:38.385Z,4.03
2019-02-03T05:44:43.527Z,5.13
2019-02-03T05:55:07.544Z,4.10
2019-02-03T06:05:13.043Z,3.93
2019-02-03T06:15:18.184Z,3.70
2019-02-03T06:25:23.322Z,3.47
2019-02-03T06:35:28.817Z,3.77
2019-02-03T06:45:52.897Z,4.40
2019-02-03T06:55:58.292Z,3.63
2019-02-03T07:06:03.403Z,3.87
2019-02-03T07:16:08.569Z,3.83
2019-02-03T07:26:13.667Z,4.43
2019-02-03T07:36:18.784Z,4.20
2019-02-03T07:46:23.920Z,3.80
2019-02-03T07:56:29.515Z,3.50
2019-02-03T08:06:34.611Z,3.77
2019-02-03T08:16:39.721Z,3.53
2019-02-03T08:26:44.849Z,3.30
2019-02-03T08:36:50.046Z,3.30
2019-02-03T08:46:55.609Z,3.60
2019-02-03T08:57:00.810Z,3.60
2019-02-03T09:07:06.102Z,3.70
2019-02-03T09:17:11.923Z,4.00
2019-02-03T09:27:17.149Z,3.70
2019-02-03T09:37:22.264Z,3.87
2019-02-03T09:47:27.402Z,3.80
2019-02-03T09:57:32.514Z,5.20
2019-02-03T10:07:37.730Z,8.03
2019-02-03T10:17:42.900Z,4.90
2019-02-03T10:27:48.200Z,5.63
2019-02-03T10:38:03.314Z,8.00
2019-02-03T10:48:09.766Z,5.13
2019-02-03T10:58:15.317Z,5.40
2019-02-03T11:08:20.427Z,4.93
2019-02-03T11:18:25.543Z,6.43
2019-02-03T11:28:30.691Z,6.20
2019-02-03T11:38:36.113Z,5.73
2019-02-03T11:48:41.477Z,8.57
2019-02-03T11:58:46.663Z,5.07
2019-02-03T12:08:52.117Z,4.47
2019-02-03T12:18:57.357Z,8.83
2019-02-03T12:29:02.827Z,5.10
2019-02-03T12:39:09.984Z,8.00
2019-02-03T12:49:16.032Z,6.47
2019-02-03T12:59:21.152Z,6.60
2019-02-03T13:09:26.477Z,4.40
2019-02-03T13:19:31.604Z,4.53
2019-02-03T13:29:36.825Z,4.63
2019-02-03T13:39:42.259Z,7.43
2019-02-03T13:49:47.617Z,4.90
2019-02-03T13:59:53.304Z,30.93
2019-02-03T14:09:58.849Z,20.40
2019-02-03T14:20:04.355Z,29.23
2019-02-03T14:30:13.974Z,14.03
2019-02-03T14:40:19.234Z,18.03
2019-02-03T14:50:24.843Z,13.23
2019-02-03T15:00:32.686Z,19.17
2019-02-03T15:10:37.846Z,17.90
2019-02-03T15:20:42.969Z,9.63
2019-02-03T15:30:48.491Z,11.27
2019-02-03T15:40:53.625Z,12.23
2019-02-03T15:50:58.738Z,10.80
2019-02-03T16:01:03.988Z,9.70
2019-02-03T16:11:09.372Z,8.80
2019-02-03T16:21:14.499Z,10.60
2019-02-03T16:31:19.611Z,9.53
2019-02-03T16:41:24.745Z,8.30
2019-02-03T16:51:29.913Z,9.50
2019-02-03T17:01:34.988Z,9.03
2019-02-03T17:11:40.182Z,10.23
2019-02-03T17:21:45.353Z,8.77
2019-02-03T17:31:50.556Z,10.00
2019-02-03T17:41:55.754Z,9.53
2019-02-03T17:52:00.943Z,9.30
2019-02-03T18:02:07.725Z,9.47
2019-02-03T18:12:13.163Z,9.03
2019-02-03T18:22:18.281Z,7.50
2019-02-03T18:32:23.385Z,10.37
2019-02-03T18:42:28.617Z,10.40
2019-02-03T18:52:33.779Z,7.27
2019-02-03T19:02:38.941Z,10.33
2019-02-03T19:12:44.059Z,9.87
2019-02-03T19:22:49.404Z,10.37
2019-02-03T19:32:54.506Z,8.33
2019-02-03T19:42:59.669Z,11.90
2019-02-03T19:53:04.961Z,8.30
2019-02-03T20:03:10.102Z,7.40
2019-02-03T20:13:15.222Z,8.80
2019-02-03T20:23:20.331Z,9.13
2019-02-03T20:33:25.444Z,11.80
2019-02-03T20:43:30.585Z,9.43
2019-02-03T20:53:35.696Z,9.93
2019-02-03T21:03:40.803Z,9.17
2019-02-03T21:13:45.928Z,14.87
2019-02-03T21:23:51.038Z,9.67
2019-02-03T21:33:56.167Z,12.37
2019-02-03T21:44:01.733Z,12.43
2019-02-03T21:54:06.835Z,8.30
2019-02-03T22:04:11.954Z,11.33
2019-02-03T22:14:17.058Z,10.07
2019-02-03T22:24:22.156Z,8.67
2019-02-03T22:34:27.257Z,10.40
2019-02-03T22:44:33.055Z,8.80
2019-02-03T22:54:38.169Z,9.50
2019-02-03T23:04:43.270Z,9.83
2019-02-03T23:14:48.483Z,7.40
2019-02-03T23:24:53.664Z,9.33
2019-02-03T23:34:59.247Z,10.53
2019-02-03T23:45:05.242Z,10.43
2019-02-03T23:55:10.350Z,8.90
